createdAt,value
2023-05-17T00:00:10.697Z,1.13
2023-05-17T00:02:37.554Z,1.73
2023-05-17T00:05:04.749Z,1.40
2023-05-17T00:07:31.372Z,1.40
2023-05-17T00:09:57.979Z,1.30
2023-05-17T00:12:24.577Z,1.20
2023-05-17T00:14:51.184Z,1.20
2023-05-17T00:17:17.768Z,1.10
2023-05-17T00:19:44.378Z,1.33
2023-05-17T00:22:11.045Z,1.30
2023-05-17T00:24:37.658Z,1.20
2023-05-17T00:27:04.561Z,1.10
2023-05-17T00:29:31.135Z,1.40
2023-05-17T00:31:57.711Z,1.47
2023-05-17T00:34:24.310Z,1.33
2023-05-17T00:36:50.921Z,1.20
2023-05-17T00:39:17.493Z,1.17
2023-05-17T00:41:44.150Z,1.17
2023-05-17T00:44:11.186Z,1.27
2023-05-17T00:46:37.776Z,1.37
2023-05-17T00:49:04.760Z,1.20
2023-05-17T00:51:34.830Z,1.20
2023-05-17T00:54:02.089Z,1.40
2023-05-17T00:56:28.673Z,1.20
2023-05-17T00:58:55.359Z,1.20
2023-05-17T01:01:22.328Z,1.30
2023-05-17T01:03:49.517Z,1.50
2023-05-17T01:06:16.387Z,1.37
2023-05-17T01:08:43.579Z,1.57
2023-05-17T01:11:12.592Z,1.40
2023-05-17T01:13:52.164Z,1.07
2023-05-17T01:16:22.594Z,1.40
2023-05-17T01:18:54.486Z,1.20
2023-05-17T01:21:39.262Z,1.40
2023-05-17T01:24:15.382Z,1.30
2023-05-17T01:26:44.170Z,1.20
2023-05-17T01:29:12.383Z,1.10
2023-05-17T01:31:39.311Z,1.50
2023-05-17T01:34:09.085Z,1.20
2023-05-17T01:36:36.198Z,1.40
2023-05-17T01:39:03.518Z,1.30
2023-05-17T01:42:04.201Z,1.40
2023-05-17T01:44:45.738Z,1.50
2023-05-17T01:47:15.753Z,1.30
2023-05-17T01:49:46.890Z,1.47
2023-05-17T01:52:19.106Z,1.60
2023-05-17T01:54:56.250Z,1.37
2023-05-17T01:57:28.444Z,1.70
2023-05-17T01:59:56.533Z,1.47
2023-05-17T02:02:23.260Z,1.87
2023-05-17T02:04:51.628Z,1.67
2023-05-17T02:07:18.274Z,1.90
2023-05-17T02:09:44.897Z,1.57
2023-05-17T02:12:11.565Z,1.90
2023-05-17T02:14:38.147Z,2.43
2023-05-17T02:17:06.030Z,1.73
2023-05-17T02:19:32.715Z,1.80
2023-05-17T02:22:00.132Z,1.77
2023-05-17T02:24:27.002Z,1.73
2023-05-17T02:26:53.685Z,1.90
2023-05-17T02:29:20.422Z,2.00
2023-05-17T02:31:47.046Z,1.80
2023-05-17T02:34:13.743Z,1.80
2023-05-17T02:36:41.179Z,1.40
2023-05-17T02:39:07.776Z,1.60
2023-05-17T02:41:34.400Z,1.53
2023-05-17T02:44:01.223Z,1.80
2023-05-17T02:46:27.924Z,1.80
2023-05-17T02:48:54.553Z,1.60
2023-05-17T02:51:21.167Z,1.80
2023-05-17T02:53:47.893Z,1.80
2023-05-17T02:56:14.466Z,1.77
2023-05-17T02:58:42.109Z,1.57
2023-05-17T03:01:09.661Z,1.70
2023-05-17T03:03:36.530Z,1.63
2023-05-17T03:06:04.999Z,1.17
2023-05-17T03:08:32.823Z,1.80
2023-05-17T03:11:01.556Z,1.60
2023-05-17T03:13:28.756Z,1.40
2023-05-17T03:15:55.347Z,1.70
2023-05-17T03:18:22.129Z,1.60
2023-05-17T03:20:49.068Z,1.70
2023-05-17T03:23:16.106Z,1.50
2023-05-17T03:25:51.565Z,1.50
2023-05-17T03:28:18.284Z,2.07
2023-05-17T03:30:45.496Z,2.03
2023-05-17T03:33:13.070Z,1.70
2023-05-17T03:35:39.761Z,1.73
2023-05-17T03:38:06.428Z,2.07
2023-05-17T03:40:33.143Z,1.80
2023-05-17T03:43:00.817Z,1.97
2023-05-17T03:45:28.417Z,1.77
2023-05-17T03:47:55.258Z,2.20
2023-05-17T03:50:22.749Z,2.03
2023-05-17T03:52:50.416Z,2.03
2023-05-17T03:55:17.149Z,2.03
2023-05-17T03:57:44.132Z,2.10
2023-05-17T04:00:12.098Z,2.60
2023-05-17T04:02:41.880Z,2.27
2023-05-17T04:05:09.400Z,2.30
2023-05-17T04:07:36.107Z,2.20
2023-05-17T04:10:03.360Z,2.20
2023-05-17T04:12:30.225Z,2.20
2023-05-17T04:14:56.918Z,1.80
2023-05-17T04:17:23.622Z,1.88
2023-05-17T04:19:50.736Z,1.60
2023-05-17T04:22:17.548Z,1.83
2023-05-17T04:24:44.242Z,1.70
2023-05-17T04:27:11.320Z,2.13
2023-05-17T04:29:38.028Z,1.70
2023-05-17T04:32:05.147Z,1.83
2023-05-17T04:34:32.136Z,1.70
2023-05-17T04:36:59.893Z,1.80
2023-05-17T04:39:30.581Z,2.00
2023-05-17T04:41:57.898Z,2.00
2023-05-17T04:44:24.626Z,1.90
2023-05-17T04:46:52.123Z,2.07
2023-05-17T04:49:19.011Z,2.07
2023-05-17T04:51:45.651Z,2.20
2023-05-17T04:54:13.248Z,2.10
2023-05-17T04:56:40.498Z,2.13
2023-05-17T04:59:13.152Z,1.93
2023-05-17T05:01:39.786Z,1.80
2023-05-17T05:04:07.370Z,2.80
2023-05-17T05:06:39.606Z,2.87
2023-05-17T05:09:07.310Z,3.07
2023-05-17T05:11:36.412Z,3.00
2023-05-17T05:14:04.170Z,3.67
2023-05-17T05:16:30.856Z,3.30
2023-05-17T05:18:57.676Z,3.30
2023-05-17T05:21:24.457Z,2.97
2023-05-17T05:23:52.015Z,3.33
2023-05-17T05:26:18.724Z,3.10
2023-05-17T05:28:45.513Z,3.10
2023-05-17T05:31:12.316Z,4.00
2023-05-17T05:33:45.228Z,3.40
2023-05-17T05:36:12.214Z,3.50
2023-05-17T05:38:38.858Z,3.70
2023-05-17T05:41:06.315Z,3.93
2023-05-17T05:43:33.459Z,4.17
2023-05-17T05:46:00.190Z,3.50
2023-05-17T05:48:27.114Z,4.10
2023-05-17T05:50:53.839Z,3.57
2023-05-17T05:53:20.449Z,3.60
2023-05-17T05:55:51.103Z,3.70
2023-05-17T05:58:18.306Z,3.83
2023-05-17T06:00:45.783Z,3.13
2023-05-17T06:03:12.362Z,3.43
2023-05-17T06:05:40.493Z,3.67
2023-05-17T06:08:07.392Z,3.80
2023-05-17T06:10:34.073Z,4.20
2023-05-17T06:13:00.737Z,3.67
2023-05-17T06:15:27.507Z,4.13
2023-05-17T06:17:54.197Z,3.70
2023-05-17T06:20:20.822Z,3.80
2023-05-17T06:22:47.570Z,4.27
2023-05-17T06:25:14.151Z,3.87
2023-05-17T06:27:40.868Z,3.43
2023-05-17T06:30:07.775Z,4.00
2023-05-17T06:32:34.832Z,3.80
2023-05-17T06:35:01.727Z,20.93
2023-05-17T06:37:28.426Z,3.77
2023-05-17T06:40:10.080Z,3.40
2023-05-17T06:42:42.517Z,4.60
2023-05-17T06:45:09.475Z,3.77
2023-05-17T06:47:36.131Z,4.27
2023-05-17T06:50:03.133Z,4.07
2023-05-17T06:52:29.684Z,3.83
2023-05-17T06:54:56.315Z,4.10
2023-05-17T06:57:24.354Z,3.30
2023-05-17T06:59:52.350Z,3.83
2023-05-17T07:02:19.442Z,3.57
2023-05-17T07:04:46.230Z,3.70
2023-05-17T07:07:12.865Z,3.27
2023-05-17T07:09:39.884Z,3.03
2023-05-17T07:12:06.694Z,3.73
2023-05-17T07:14:33.292Z,3.30
2023-05-17T07:16:59.942Z,3.27
2023-05-17T07:19:29.231Z,3.27
2023-05-17T07:21:55.893Z,3.23
2023-05-17T07:24:22.865Z,3.10
2023-05-17T07:26:51.500Z,3.40
2023-05-17T07:29:18.876Z,3.20
2023-05-17T07:31:45.458Z,3.50
2023-05-17T07:34:13.221Z,3.73
2023-05-17T07:36:39.992Z,3.80
2023-05-17T07:39:06.724Z,3.33
2023-05-17T07:41:34.217Z,3.73
2023-05-17T07:44:00.779Z,3.40
2023-05-17T07:46:27.471Z,3.63
2023-05-17T07:48:58.128Z,5.00
2023-05-17T07:51:25.679Z,3.07
2023-05-17T07:53:52.277Z,3.87
2023-05-17T07:56:18.867Z,3.77
2023-05-17T07:58:45.554Z,3.00
2023-05-17T08:01:12.171Z,3.37
2023-05-17T08:03:38.801Z,2.80
2023-05-17T08:06:05.638Z,3.20
2023-05-17T08:08:32.253Z,2.73
2023-05-17T08:10:58.864Z,2.83
2023-05-17T08:13:25.718Z,2.60
2023-05-17T08:15:58.444Z,2.80
2023-05-17T08:18:28.338Z,3.20
2023-05-17T08:20:55.050Z,3.03
2023-05-17T08:23:21.645Z,2.83
2023-05-17T08:25:48.393Z,3.10
2023-05-17T08:28:15.051Z,3.00
2023-05-17T08:30:41.907Z,2.80
2023-05-17T08:33:11.585Z,3.10
2023-05-17T08:35:38.275Z,2.83
2023-05-17T08:38:04.862Z,2.90
2023-05-17T08:40:31.725Z,2.73
2023-05-17T08:42:58.773Z,2.57
2023-05-17T08:45:26.820Z,2.47
2023-05-17T08:47:54.775Z,2.70
2023-05-17T08:50:22.052Z,2.30
2023-05-17T08:52:49.875Z,3.13
2023-05-17T08:55:16.891Z,2.20
2023-05-17T08:57:43.613Z,1.97
2023-05-17T09:00:14.428Z,2.10
2023-05-17T09:02:42.923Z,1.80
2023-05-17T09:05:10.843Z,2.00
2023-05-17T09:07:38.387Z,2.03
2023-05-17T09:10:06.017Z,2.20
2023-05-17T09:12:36.289Z,2.20
2023-05-17T09:15:16.123Z,2.20
2023-05-17T09:17:43.466Z,2.10
2023-05-17T09:20:11.080Z,2.47
2023-05-17T09:22:38.473Z,2.20
2023-05-17T09:25:05.399Z,2.70
2023-05-17T09:27:32.510Z,3.80
2023-05-17T09:29:59.454Z,2.40
2023-05-17T09:32:26.377Z,2.47
2023-05-17T09:34:53.037Z,2.27
2023-05-17T09:37:20.670Z,2.20
2023-05-17T09:39:48.101Z,2.70
2023-05-17T09:42:16.898Z,2.67
2023-05-17T09:44:51.106Z,2.53
2023-05-17T09:47:23.994Z,3.03
2023-05-17T09:49:51.187Z,2.30
2023-05-17T09:52:21.455Z,2.40
2023-05-17T09:54:52.704Z,2.33
2023-05-17T09:57:19.432Z,2.43
2023-05-17T09:59:46.639Z,2.43
2023-05-17T10:02:23.306Z,2.50
2023-05-17T10:04:51.352Z,2.27
2023-05-17T10:07:19.726Z,1.77
2023-05-17T10:09:47.386Z,2.07
2023-05-17T10:12:16.879Z,2.20
2023-05-17T10:14:44.053Z,1.80
2023-05-17T10:17:11.881Z,2.03
2023-05-17T10:19:39.112Z,2.10
2023-05-17T10:22:21.728Z,2.10
2023-05-17T10:24:50.072Z,1.73
2023-05-17T10:27:17.239Z,2.20
2023-05-17T10:29:44.326Z,2.37
2023-05-17T10:32:13.602Z,2.00
2023-05-17T10:34:40.381Z,2.33
2023-05-17T10:37:07.920Z,2.27
2023-05-17T10:39:38.379Z,2.00
2023-05-17T10:42:14.772Z,1.50
2023-05-17T10:44:42.240Z,1.83
2023-05-17T10:47:10.257Z,2.27
2023-05-17T10:49:37.852Z,2.30
2023-05-17T10:52:15.654Z,2.03
2023-05-17T10:54:43.613Z,2.23
2023-05-17T10:57:19.007Z,2.30
2023-05-17T11:00:01.725Z,2.07
2023-05-17T11:02:28.947Z,2.03
2023-05-17T11:05:00.507Z,2.03
2023-05-17T11:07:32.738Z,1.93
2023-05-17T11:10:14.056Z,2.17
2023-05-17T11:12:42.997Z,2.20
2023-05-17T11:15:10.954Z,2.30
2023-05-17T11:17:37.700Z,2.07
2023-05-17T11:20:06.820Z,1.73
2023-05-17T11:22:41.101Z,2.43
2023-05-17T11:25:10.645Z,1.83
2023-05-17T11:27:44.889Z,2.10
2023-05-17T11:30:19.539Z,2.47
2023-05-17T11:32:49.918Z,1.80
2023-05-17T11:35:17.816Z,2.40
2023-05-17T11:37:45.015Z,1.80
2023-05-17T11:40:13.353Z,2.30
2023-05-17T11:42:39.961Z,1.90
2023-05-17T11:45:07.243Z,2.00
2023-05-17T11:47:34.399Z,1.70
2023-05-17T11:50:01.876Z,1.60
2023-05-17T11:52:29.390Z,1.70
2023-05-17T11:54:57.096Z,1.77
2023-05-17T11:57:30.578Z,1.70
2023-05-17T12:00:01.350Z,2.17
2023-05-17T12:02:29.058Z,1.67
2023-05-17T12:04:56.046Z,1.80
2023-05-17T12:07:22.969Z,1.80
2023-05-17T12:09:50.183Z,1.60
2023-05-17T12:12:17.006Z,1.77
2023-05-17T12:14:44.453Z,1.60
2023-05-17T12:17:13.613Z,1.77
2023-05-17T12:19:40.395Z,1.57
2023-05-17T12:22:14.718Z,1.30
2023-05-17T12:24:41.957Z,1.63
2023-05-17T12:27:09.195Z,1.67
2023-05-17T12:29:35.803Z,1.67
2023-05-17T12:32:02.779Z,1.20
2023-05-17T12:34:30.381Z,1.80
2023-05-17T12:36:57.173Z,1.57
2023-05-17T12:39:24.298Z,1.70
2023-05-17T12:41:52.037Z,1.40
2023-05-17T12:44:20.627Z,1.83
2023-05-17T12:46:53.911Z,1.70
2023-05-17T12:49:23.727Z,1.77
2023-05-17T12:51:50.503Z,1.60
2023-05-17T12:54:29.901Z,1.23
2023-05-17T12:56:57.344Z,1.50
2023-05-17T12:59:29.101Z,1.40
2023-05-17T13:01:56.770Z,1.30
2023-05-17T13:04:34.445Z,1.97
2023-05-17T13:07:02.185Z,1.67
2023-05-17T13:09:33.398Z,1.47
2023-05-17T13:12:02.002Z,1.30
2023-05-17T13:14:45.205Z,1.63
2023-05-17T13:17:16.641Z,1.50
2023-05-17T13:19:43.355Z,1.57
2023-05-17T13:22:10.276Z,1.43
2023-05-17T13:24:37.962Z,1.60
2023-05-17T13:27:04.932Z,1.60
2023-05-17T13:29:39.523Z,2.00
2023-05-17T13:32:07.923Z,1.70
2023-05-17T13:34:34.535Z,1.27
2023-05-17T13:37:01.271Z,1.40
2023-05-17T13:39:27.940Z,1.77
2023-05-17T13:41:54.521Z,1.50
2023-05-17T13:44:21.250Z,1.80
2023-05-17T13:46:47.902Z,1.40
2023-05-17T13:49:14.807Z,1.57
2023-05-17T13:51:42.685Z,1.40
2023-05-17T13:54:10.477Z,1.87
2023-05-17T13:56:37.227Z,1.53
2023-05-17T13:59:03.862Z,1.80
2023-05-17T14:01:30.551Z,1.40
2023-05-17T14:03:57.523Z,1.57
2023-05-17T14:06:24.230Z,1.77
2023-05-17T14:08:52.366Z,1.60
2023-05-17T14:11:19.049Z,1.80
2023-05-17T14:13:45.705Z,1.60
2023-05-17T14:16:12.370Z,1.80
2023-05-17T14:18:39.114Z,1.37
2023-05-17T14:21:07.159Z,1.83
2023-05-17T14:23:34.840Z,1.50
2023-05-17T14:26:02.897Z,1.73
2023-05-17T14:28:29.445Z,1.87
2023-05-17T14:30:56.262Z,2.00
2023-05-17T14:33:22.961Z,2.10
2023-05-17T14:35:49.583Z,1.93
2023-05-17T14:38:16.359Z,1.40
2023-05-17T14:40:42.949Z,1.60
2023-05-17T14:43:09.531Z,1.93
2023-05-17T14:45:36.122Z,1.77
2023-05-17T14:48:02.773Z,1.93
2023-05-17T14:50:29.606Z,1.70
2023-05-17T14:52:56.451Z,1.77
2023-05-17T14:55:24.169Z,1.70
2023-05-17T14:57:52.775Z,1.63
2023-05-17T15:00:19.786Z,1.70
2023-05-17T15:02:46.436Z,2.33
2023-05-17T15:05:13.144Z,1.73
2023-05-17T15:07:39.980Z,2.20
2023-05-17T15:10:06.841Z,1.60
2023-05-17T15:12:33.471Z,2.37
2023-05-17T15:15:00.752Z,1.97
2023-05-17T15:17:27.576Z,1.43
2023-05-17T15:19:54.681Z,1.80
2023-05-17T15:22:21.354Z,2.17
2023-05-17T15:24:47.945Z,1.80
2023-05-17T15:27:16.456Z,2.00
2023-05-17T15:29:43.530Z,2.13
2023-05-17T15:32:10.353Z,2.17
2023-05-17T15:34:37.076Z,2.00
2023-05-17T15:37:03.777Z,1.83
2023-05-17T15:39:30.576Z,1.57
2023-05-17T15:41:57.177Z,2.00
2023-05-17T15:44:23.986Z,2.50
2023-05-17T15:46:50.946Z,2.00
2023-05-17T15:49:17.699Z,2.00
2023-05-17T15:51:44.308Z,2.07
2023-05-17T15:54:11.048Z,1.93
2023-05-17T15:56:38.417Z,1.73
2023-05-17T15:59:05.702Z,2.03
2023-05-17T16:01:32.326Z,2.47
2023-05-17T16:03:58.915Z,1.57
2023-05-17T16:06:25.835Z,1.90
2023-05-17T16:08:53.041Z,1.50
2023-05-17T16:11:19.682Z,2.00
2023-05-17T16:13:46.289Z,2.17
2023-05-17T16:16:14.584Z,5.70
2023-05-17T16:18:41.361Z,2.60
2023-05-17T16:21:09.347Z,3.23
2023-05-17T16:23:36.045Z,2.03
2023-05-17T16:26:02.930Z,4.43
2023-05-17T16:28:31.727Z,3.07
2023-05-17T16:30:58.422Z,2.60
2023-05-17T16:33:25.236Z,2.23
2023-05-17T16:35:52.063Z,2.37
2023-05-17T16:38:18.713Z,2.07
2023-05-17T16:40:45.332Z,2.27
2023-05-17T16:43:15.967Z,6.27
2023-05-17T16:45:43.887Z,7.13
2023-05-17T16:48:12.327Z,26.10
2023-05-17T16:50:39.133Z,12.43
2023-05-17T16:53:05.903Z,8.27
2023-05-17T16:55:32.473Z,2.83
2023-05-17T16:57:59.160Z,3.27
2023-05-17T17:00:25.776Z,5.40
2023-05-17T17:02:52.456Z,5.57
2023-05-17T17:05:20.338Z,25.83
2023-05-17T17:07:47.391Z,5.93
2023-05-17T17:10:14.058Z,3.07
2023-05-17T17:12:40.653Z,2.23
2023-05-17T17:15:08.022Z,4.33
2023-05-17T17:17:34.824Z,24.27
2023-05-17T17:20:01.622Z,20.67
2023-05-17T17:22:28.172Z,11.73
2023-05-17T17:24:55.052Z,2.33
2023-05-17T17:27:21.683Z,14.07
2023-05-17T17:29:48.250Z,9.53
2023-05-17T17:32:14.865Z,15.73
2023-05-17T17:34:41.547Z,15.20
2023-05-17T17:37:08.215Z,105.57
2023-05-17T17:39:35.318Z,44.53
2023-05-17T17:42:02.160Z,26.87
2023-05-17T17:44:28.853Z,33.03
2023-05-17T17:46:55.472Z,36.28
2023-05-17T17:49:22.022Z,13.97
2023-05-17T17:51:48.669Z,32.50
2023-05-17T17:54:15.312Z,52.50
2023-05-17T17:56:41.968Z,31.00
2023-05-17T17:59:08.940Z,26.60
2023-05-17T18:01:37.540Z,26.73
2023-05-17T18:04:05.346Z,13.73
2023-05-17T18:06:31.958Z,11.60
2023-05-17T18:08:59.537Z,5.77
2023-05-17T18:11:26.270Z,3.70
2023-05-17T18:13:52.839Z,2.90
2023-05-17T18:16:19.488Z,2.30
2023-05-17T18:18:47.001Z,2.70
2023-05-17T18:21:13.777Z,2.27
2023-05-17T18:23:40.478Z,2.03
2023-05-17T18:26:07.268Z,2.10
2023-05-17T18:28:42.360Z,6.50
2023-05-17T18:31:09.892Z,3.40
2023-05-17T18:33:36.525Z,3.63
2023-05-17T18:36:03.354Z,4.27
2023-05-17T18:38:30.120Z,5.77
2023-05-17T18:40:56.720Z,7.37
2023-05-17T18:43:23.283Z,6.37
2023-05-17T18:45:49.884Z,7.20
2023-05-17T18:48:16.532Z,6.27
2023-05-17T18:50:43.181Z,6.03
2023-05-17T18:53:09.964Z,5.20
2023-05-17T18:55:36.570Z,6.13
2023-05-17T18:58:03.187Z,4.40
2023-05-17T19:00:30.030Z,2.90
2023-05-17T19:02:56.893Z,2.00
2023-05-17T19:05:23.503Z,2.07
2023-05-17T19:07:50.148Z,2.20
2023-05-17T19:10:16.824Z,2.03
2023-05-17T19:12:45.638Z,2.50
2023-05-17T19:15:12.435Z,2.00
2023-05-17T19:17:39.133Z,2.30
2023-05-17T19:20:06.264Z,2.80
2023-05-17T19:22:32.894Z,2.47
2023-05-17T19:25:00.101Z,3.30
2023-05-17T19:27:27.510Z,3.27
2023-05-17T19:29:54.345Z,2.80
2023-05-17T19:32:22.809Z,2.73
2023-05-17T19:34:49.773Z,2.40
2023-05-17T19:37:16.531Z,2.43
2023-05-17T19:39:43.128Z,2.63
2023-05-17T19:42:09.782Z,2.10
2023-05-17T19:44:36.350Z,2.40
2023-05-17T19:47:03.291Z,2.20
2023-05-17T19:49:30.041Z,2.87
2023-05-17T19:52:00.680Z,2.77
2023-05-17T19:54:28.566Z,2.23
2023-05-17T19:56:55.451Z,2.57
2023-05-17T19:59:22.039Z,2.40
2023-05-17T20:01:48.684Z,2.20
2023-05-17T20:04:15.539Z,3.33
2023-05-17T20:06:42.204Z,2.80
2023-05-17T20:09:08.809Z,3.37
2023-05-17T20:11:35.560Z,3.50
2023-05-17T20:14:02.063Z,3.37
2023-05-17T20:16:30.753Z,3.60
2023-05-17T20:19:01.067Z,4.10
2023-05-17T20:21:28.058Z,4.40
2023-05-17T20:24:01.409Z,3.60
2023-05-17T20:26:31.866Z,3.10
2023-05-17T20:28:59.184Z,3.10
2023-05-17T20:31:26.090Z,2.70
2023-05-17T20:33:53.068Z,2.90
2023-05-17T20:36:19.747Z,3.33
2023-05-17T20:38:46.557Z,3.20
2023-05-17T20:41:14.976Z,3.43
2023-05-17T20:43:49.696Z,2.83
2023-05-17T20:46:17.231Z,2.93
2023-05-17T20:48:46.435Z,3.50
2023-05-17T20:51:13.276Z,4.77
2023-05-17T20:53:40.114Z,7.43
2023-05-17T20:56:06.903Z,8.40
2023-05-17T20:58:33.670Z,7.57
2023-05-17T21:01:01.193Z,7.43
2023-05-17T21:03:28.724Z,4.97
2023-05-17T21:05:55.753Z,5.13
2023-05-17T21:08:23.669Z,4.40
2023-05-17T21:10:50.328Z,4.60
2023-05-17T21:13:17.185Z,3.90
2023-05-17T21:15:43.887Z,3.93
2023-05-17T21:18:11.449Z,3.40
2023-05-17T21:20:38.669Z,3.53
2023-05-17T21:23:05.412Z,3.40
2023-05-17T21:25:32.250Z,3.50
2023-05-17T21:27:59.112Z,3.40
2023-05-17T21:30:25.918Z,3.50
2023-05-17T21:32:52.496Z,3.50
2023-05-17T21:35:19.370Z,3.50
2023-05-17T21:37:45.958Z,3.10
2023-05-17T21:40:12.616Z,2.97
2023-05-17T21:42:39.222Z,2.67
2023-05-17T21:45:06.317Z,3.20
2023-05-17T21:47:32.955Z,2.40
2023-05-17T21:49:59.584Z,3.13
2023-05-17T21:52:26.162Z,3.07
2023-05-17T21:54:52.831Z,3.20
2023-05-17T21:57:21.185Z,3.10
2023-05-17T21:59:49.403Z,2.90
2023-05-17T22:02:16.457Z,2.70
2023-05-17T22:04:43.092Z,3.33
2023-05-17T22:07:13.111Z,3.77
2023-05-17T22:09:40.080Z,4.17
2023-05-17T22:12:08.551Z,4.50
2023-05-17T22:14:36.521Z,5.47
2023-05-17T22:17:09.135Z,5.80
2023-05-17T22:19:40.912Z,6.30
2023-05-17T22:22:08.186Z,6.00
2023-05-17T22:24:35.011Z,5.90
2023-05-17T22:27:02.383Z,4.97
2023-05-17T22:29:29.129Z,3.70
2023-05-17T22:31:55.833Z,3.40
2023-05-17T22:34:22.467Z,3.40
2023-05-17T22:36:49.173Z,2.70
2023-05-17T22:39:15.741Z,2.40
2023-05-17T22:41:42.305Z,2.30
2023-05-17T22:44:08.958Z,2.77
2023-05-17T22:46:35.972Z,2.30
2023-05-17T22:49:02.564Z,2.30
2023-05-17T22:51:30.110Z,2.30
2023-05-17T22:53:57.023Z,2.43
2023-05-17T22:56:23.650Z,2.30
2023-05-17T22:58:50.445Z,2.40
2023-05-17T23:01:17.030Z,2.73
2023-05-17T23:03:43.680Z,2.80
2023-05-17T23:06:10.383Z,3.43
2023-05-17T23:08:36.944Z,2.80
2023-05-17T23:11:05.400Z,2.37
2023-05-17T23:13:31.983Z,2.57
2023-05-17T23:15:58.665Z,3.13
2023-05-17T23:18:27.506Z,2.80
2023-05-17T23:20:54.220Z,2.80
2023-05-17T23:23:23.181Z,3.00
2023-05-17T23:25:50.777Z,2.70
2023-05-17T23:28:18.731Z,2.40
2023-05-17T23:30:48.780Z,2.40
2023-05-17T23:33:16.541Z,2.70
2023-05-17T23:35:43.127Z,2.80
2023-05-17T23:38:09.741Z,2.60
2023-05-17T23:40:37.101Z,3.10
2023-05-17T23:43:04.072Z,2.50
2023-05-17T23:45:30.915Z,2.70
2023-05-17T23:48:00.386Z,2.93
2023-05-17T23:50:27.305Z,2.27
2023-05-17T23:52:54.303Z,2.70
2023-05-17T23:55:22.566Z,2.30
2023-05-17T23:57:49.342Z,1.93
